createdAt,value
2022-10-17T00:08:37.570Z,78
2022-10-17T00:18:45.079Z,78
2022-10-17T00:30:03.867Z,79
2022-10-17T00:38:53.559Z,78
2022-10-17T00:49:01.076Z,79
2022-10-17T00:59:07.948Z,79
2022-10-17T01:09:15.396Z,79
2022-10-17T01:29:29.769Z,78
2022-10-17T01:39:38.267Z,78
2022-10-17T01:49:42.768Z,78
2022-10-17T01:59:50.301Z,78
2022-10-17T02:09:58.436Z,78
2022-10-17T02:20:07.421Z,78
2022-10-17T02:30:16.617Z,78
2022-10-17T02:40:25.608Z,78
2022-10-17T02:50:34.454Z,78
2022-10-17T03:00:43.478Z,78
2022-10-17T03:10:52.231Z,78
2022-10-17T03:21:01.246Z,77
2022-10-17T03:31:10.124Z,77
2022-10-17T03:41:19.004Z,77
2022-10-17T03:51:27.914Z,77
2022-10-17T04:01:36.907Z,77
2022-10-17T04:11:45.691Z,76
2022-10-17T04:21:54.563Z,76
2022-10-17T04:32:03.416Z,76
2022-10-17T04:42:12.326Z,76
2022-10-17T04:52:21.192Z,77
2022-10-17T05:02:30.359Z,77
2022-10-17T05:12:38.767Z,77
2022-10-17T05:22:42.107Z,78
2022-10-17T05:32:53.129Z,78
2022-10-17T05:42:55.161Z,77
2022-10-17T05:52:56.362Z,76
2022-10-17T06:03:05.532Z,75
2022-10-17T06:13:14.526Z,75
2022-10-17T06:23:23.558Z,75
2022-10-17T06:33:23.562Z,74
2022-10-17T06:43:32.890Z,74
2022-10-17T06:53:42.290Z,73
2022-10-17T07:03:51.441Z,73
2022-10-17T07:14:00.582Z,73
2022-10-17T07:24:09.943Z,73
2022-10-17T07:34:15.640Z,73
2022-10-17T07:44:15.169Z,73
2022-10-17T07:54:24.184Z,72
2022-10-17T08:04:33.244Z,70
2022-10-17T08:14:43.703Z,70
2022-10-17T08:24:43.852Z,70
2022-10-17T08:34:42.821Z,70
2022-10-17T08:44:51.967Z,70
2022-10-17T08:55:02.031Z,70
2022-10-17T09:05:11.274Z,70
2022-10-17T09:15:19.703Z,69
2022-10-17T09:25:28.801Z,67
2022-10-17T09:35:37.807Z,67
2022-10-17T09:45:41.059Z,67
2022-10-17T09:55:41.515Z,67
2022-10-17T10:05:44.572Z,67
2022-10-17T10:15:43.495Z,66
2022-10-17T10:25:53.604Z,66
2022-10-17T10:36:03.461Z,65
2022-10-17T10:46:03.681Z,66
2022-10-17T10:56:12.954Z,67
2022-10-17T11:46:31.577Z,60
2022-10-17T11:56:34.399Z,62
2022-10-17T12:06:38.483Z,62
2022-10-17T12:26:41.400Z,62
2022-10-17T12:36:47.297Z,62
2022-10-17T12:46:53.728Z,64
2022-10-17T12:57:11.834Z,65
2022-10-17T13:07:04.528Z,66
2022-10-17T13:17:04.030Z,67
2022-10-17T13:27:12.914Z,69
2022-10-17T13:37:21.941Z,69
2022-10-17T13:47:31.016Z,69
2022-10-17T13:57:41.414Z,69
2022-10-17T14:08:06.085Z,69
2022-10-17T14:17:47.935Z,68
2022-10-17T14:27:56.847Z,66
2022-10-17T14:38:05.754Z,66
2022-10-17T14:48:14.803Z,65
2022-10-17T14:58:24.863Z,66
2022-10-17T15:08:24.071Z,67
2022-10-17T15:18:33.180Z,68
2022-10-17T15:28:33.203Z,67
2022-10-17T15:39:38.212Z,66
2022-10-17T15:49:38.091Z,67
2022-10-17T15:59:47.031Z,69
2022-10-17T16:09:56.017Z,70
2022-10-17T16:20:05.043Z,71
2022-10-17T16:30:13.941Z,72
2022-10-17T16:40:22.297Z,73
2022-10-17T16:50:31.302Z,73
2022-10-17T17:00:40.264Z,75
2022-10-17T17:10:49.221Z,76
2022-10-17T17:20:59.270Z,76
2022-10-17T17:31:08.326Z,75
2022-10-17T17:41:17.194Z,76
2022-10-17T17:51:28.238Z,76
2022-10-17T18:01:35.267Z,76
2022-10-17T18:11:44.318Z,77
2022-10-17T18:21:53.294Z,77
2022-10-17T18:32:05.928Z,77
2022-10-17T18:42:15.725Z,77
2022-10-17T18:52:22.182Z,79
2022-10-17T19:02:31.299Z,79
2022-10-17T19:12:34.980Z,79
2022-10-17T19:22:38.656Z,78
2022-10-17T19:32:39.378Z,78
2022-10-17T19:42:38.842Z,77
2022-10-17T19:52:39.820Z,76
2022-10-17T20:02:49.349Z,76
2022-10-17T20:12:50.121Z,76
2022-10-17T20:22:59.078Z,77
2022-10-17T20:33:08.568Z,77
2022-10-17T20:43:17.657Z,76
2022-10-17T20:53:35.871Z,76
2022-10-17T21:03:26.582Z,76
2022-10-17T21:13:25.763Z,75
2022-10-17T21:23:35.638Z,75
2022-10-17T21:33:35.658Z,76
2022-10-17T21:43:44.733Z,76
2022-10-17T21:53:53.934Z,76
2022-10-17T22:04:02.576Z,77
2022-10-17T22:14:11.696Z,77
2022-10-17T22:34:21.719Z,77
2022-10-17T22:44:21.774Z,77
2022-10-17T22:54:21.603Z,79
2022-10-17T23:04:31.034Z,79
2022-10-17T23:14:39.371Z,79
2022-10-17T23:24:47.507Z,79
2022-10-17T23:34:55.670Z,79
2022-10-17T23:45:03.734Z,79
2022-10-17T23:55:11.801Z,79
